sensor_id;sensor_type;location;lat;lon;timestamp;P1;durP1;ratioP1;P2;durP2;ratioP2
8636;SDS011;4356;49.068;8.658;2022-12-07T00:01:29;4.43;;;4.13;;
8636;SDS011;4356;49.068;8.658;2022-12-07T00:03:59;4.37;;;4.07;;
8636;SDS011;4356;49.068;8.658;2022-12-07T00:06:33;4.93;;;4.60;;
8636;SDS011;4356;49.068;8.658;2022-12-07T00:09:04;4.57;;;4.27;;
8636;SDS011;4356;49.068;8.658;2022-12-07T00:11:30;4.80;;;4.40;;
8636;SDS011;4356;49.068;8.658;2022-12-07T00:13:57;4.90;;;4.50;;
8636;SDS011;4356;49.068;8.658;2022-12-07T00:16:26;4.70;;;4.33;;
8636;SDS011;4356;49.068;8.658;2022-12-07T00:18:53;4.83;;;4.43;;
8636;SDS011;4356;49.068;8.658;2022-12-07T00:21:23;4.37;;;4.07;;
8636;SDS011;4356;49.068;8.658;2022-12-07T00:23:53;4.67;;;4.30;;
8636;SDS011;4356;49.068;8.658;2022-12-07T00:26:21;4.57;;;4.27;;
8636;SDS011;4356;49.068;8.658;2022-12-07T00:28:52;4.60;;;4.30;;
8636;SDS011;4356;49.068;8.658;2022-12-07T00:31:19;4.57;;;4.27;;
8636;SDS011;4356;49.068;8.658;2022-12-07T00:33:47;5.00;;;4.60;;
8636;SDS011;4356;49.068;8.658;2022-12-07T00:36:14;4.70;;;4.30;;
8636;SDS011;4356;49.068;8.658;2022-12-07T00:38:41;5.77;;;4.60;;
8636;SDS011;4356;49.068;8.658;2022-12-07T00:41:10;5.13;;;4.50;;
8636;SDS011;4356;49.068;8.658;2022-12-07T00:43:37;4.90;;;4.60;;
8636;SDS011;4356;49.068;8.658;2022-12-07T00:46:06;5.10;;;4.80;;
8636;SDS011;4356;49.068;8.658;2022-12-07T00:48:32;4.73;;;4.40;;
8636;SDS011;4356;49.068;8.658;2022-12-07T00:50:58;4.20;;;3.90;;
8636;SDS011;4356;49.068;8.658;2022-12-07T00:53:24;4.43;;;4.03;;
8636;SDS011;4356;49.068;8.658;2022-12-07T00:55:50;4.93;;;4.53;;
8636;SDS011;4356;49.068;8.658;2022-12-07T00:58:17;4.97;;;4.47;;
8636;SDS011;4356;49.068;8.658;2022-12-07T01:00:43;4.60;;;4.30;;
8636;SDS011;4356;49.068;8.658;2022-12-07T01:03:11;4.60;;;4.30;;
8636;SDS011;4356;49.068;8.658;2022-12-07T01:05:37;4.67;;;4.37;;
8636;SDS011;4356;49.068;8.658;2022-12-07T01:08:04;4.83;;;4.33;;
8636;SDS011;4356;49.068;8.658;2022-12-07T01:10:30;4.37;;;4.07;;
8636;SDS011;4356;49.068;8.658;2022-12-07T01:12:56;4.57;;;4.27;;
8636;SDS011;4356;49.068;8.658;2022-12-07T01:15:23;5.17;;;4.77;;
8636;SDS011;4356;49.068;8.658;2022-12-07T01:17:49;4.70;;;4.40;;
8636;SDS011;4356;49.068;8.658;2022-12-07T01:20:14;5.17;;;4.77;;
8636;SDS011;4356;49.068;8.658;2022-12-07T01:22:41;4.80;;;4.50;;
8636;SDS011;4356;49.068;8.658;2022-12-07T01:25:08;4.40;;;4.10;;
8636;SDS011;4356;49.068;8.658;2022-12-07T01:27:34;4.77;;;4.47;;
8636;SDS011;4356;49.068;8.658;2022-12-07T01:30:01;5.00;;;4.60;;
8636;SDS011;4356;49.068;8.658;2022-12-07T01:32:28;4.70;;;4.40;;
8636;SDS011;4356;49.068;8.658;2022-12-07T01:34:54;4.53;;;4.17;;
8636;SDS011;4356;49.068;8.658;2022-12-07T01:37:19;4.53;;;4.13;;
8636;SDS011;4356;49.068;8.658;2022-12-07T01:39:48;4.53;;;4.13;;
8636;SDS011;4356;49.068;8.658;2022-12-07T01:42:14;4.77;;;4.47;;
8636;SDS011;4356;49.068;8.658;2022-12-07T01:47:43;5.10;;;4.63;;
8636;SDS011;4356;49.068;8.658;2022-12-07T01:50:15;4.70;;;4.33;;
8636;SDS011;4356;49.068;8.658;2022-12-07T01:52:40;5.00;;;4.67;;
8636;SDS011;4356;49.068;8.658;2022-12-07T01:55:09;4.63;;;4.33;;
8636;SDS011;4356;49.068;8.658;2022-12-07T01:57:38;5.03;;;4.67;;
8636;SDS011;4356;49.068;8.658;2022-12-07T02:00:07;4.87;;;4.50;;
8636;SDS011;4356;49.068;8.658;2022-12-07T02:02:34;5.20;;;4.80;;
8636;SDS011;4356;49.068;8.658;2022-12-07T02:05:08;5.13;;;4.57;;
8636;SDS011;4356;49.068;8.658;2022-12-07T02:07:35;4.60;;;4.30;;
8636;SDS011;4356;49.068;8.658;2022-12-07T02:10:15;5.40;;;4.57;;
8636;SDS011;4356;49.068;8.658;2022-12-07T02:13:04;5.20;;;4.90;;
8636;SDS011;4356;49.068;8.658;2022-12-07T02:15:44;5.43;;;4.93;;
8636;SDS011;4356;49.068;8.658;2022-12-07T02:26:27;4.97;;;4.57;;
8636;SDS011;4356;49.068;8.658;2022-12-07T02:31:41;5.53;;;4.80;;
8636;SDS011;4356;49.068;8.658;2022-12-07T02:34:13;5.30;;;4.80;;
8636;SDS011;4356;49.068;8.658;2022-12-07T02:36:47;5.73;;;5.23;;
8636;SDS011;4356;49.068;8.658;2022-12-07T02:39:20;5.50;;;5.10;;
8636;SDS011;4356;49.068;8.658;2022-12-07T02:41:53;5.17;;;4.77;;
8636;SDS011;4356;49.068;8.658;2022-12-07T02:44:24;5.47;;;4.90;;
8636;SDS011;4356;49.068;8.658;2022-12-07T02:46:57;5.50;;;5.07;;
8636;SDS011;4356;49.068;8.658;2022-12-07T02:49:27;5.30;;;4.90;;
8636;SDS011;4356;49.068;8.658;2022-12-07T02:51:54;6.17;;;4.87;;
8636;SDS011;4356;49.068;8.658;2022-12-07T02:54:20;5.33;;;4.90;;
8636;SDS011;4356;49.068;8.658;2022-12-07T02:56:51;5.73;;;5.27;;
8636;SDS011;4356;49.068;8.658;2022-12-07T03:05:31;5.10;;;4.70;;
8636;SDS011;4356;49.068;8.658;2022-12-07T03:08:00;6.53;;;3.70;;
8636;SDS011;4356;49.068;8.658;2022-12-07T03:10:28;4.83;;;4.47;;
8636;SDS011;4356;49.068;8.658;2022-12-07T03:13:06;5.33;;;4.83;;
8636;SDS011;4356;49.068;8.658;2022-12-07T03:18:20;5.63;;;4.50;;
8636;SDS011;4356;49.068;8.658;2022-12-07T03:20:48;4.63;;;4.33;;
8636;SDS011;4356;49.068;8.658;2022-12-07T03:23:18;4.80;;;4.50;;
8636;SDS011;4356;49.068;8.658;2022-12-07T03:25:48;5.07;;;4.63;;
8636;SDS011;4356;49.068;8.658;2022-12-07T03:28:18;4.93;;;4.30;;
8636;SDS011;4356;49.068;8.658;2022-12-07T03:30:49;9.10;;;4.77;;
8636;SDS011;4356;49.068;8.658;2022-12-07T03:33:24;5.20;;;4.80;;
8636;SDS011;4356;49.068;8.658;2022-12-07T03:35:58;6.40;;;4.63;;
8636;SDS011;4356;49.068;8.658;2022-12-07T03:38:31;5.20;;;4.70;;
8636;SDS011;4356;49.068;8.658;2022-12-07T03:41:23;4.90;;;4.60;;
8636;SDS011;4356;49.068;8.658;2022-12-07T03:43:50;4.90;;;4.60;;
8636;SDS011;4356;49.068;8.658;2022-12-07T03:51:55;5.07;;;4.67;;
8636;SDS011;4356;49.068;8.658;2022-12-07T03:54:37;5.20;;;4.80;;
8636;SDS011;4356;49.068;8.658;2022-12-07T03:57:09;5.07;;;4.77;;
8636;SDS011;4356;49.068;8.658;2022-12-07T03:59:37;4.73;;;4.40;;
8636;SDS011;4356;49.068;8.658;2022-12-07T04:02:04;5.37;;;4.97;;
8636;SDS011;4356;49.068;8.658;2022-12-07T04:04:31;5.47;;;4.97;;
8636;SDS011;4356;49.068;8.658;2022-12-07T04:06:58;5.00;;;4.63;;
8636;SDS011;4356;49.068;8.658;2022-12-07T04:09:24;5.50;;;4.90;;
8636;SDS011;4356;49.068;8.658;2022-12-07T04:11:49;5.20;;;4.80;;
8636;SDS011;4356;49.068;8.658;2022-12-07T04:14:15;6.10;;;5.50;;
8636;SDS011;4356;49.068;8.658;2022-12-07T04:16:50;5.20;;;4.70;;
8636;SDS011;4356;49.068;8.658;2022-12-07T04:19:18;5.63;;;5.13;;
8636;SDS011;4356;49.068;8.658;2022-12-07T04:21:45;5.33;;;4.90;;
8636;SDS011;4356;49.068;8.658;2022-12-07T04:24:12;5.57;;;5.03;;
8636;SDS011;4356;49.068;8.658;2022-12-07T04:26:40;5.93;;;4.90;;
8636;SDS011;4356;49.068;8.658;2022-12-07T04:29:06;5.50;;;5.10;;
8636;SDS011;4356;49.068;8.658;2022-12-07T04:31:32;5.77;;;5.23;;
8636;SDS011;4356;49.068;8.658;2022-12-07T04:33:58;5.73;;;5.27;;
8636;SDS011;4356;49.068;8.658;2022-12-07T04:36:23;5.93;;;5.33;;
8636;SDS011;4356;49.068;8.658;2022-12-07T04:38:49;5.63;;;5.23;;
8636;SDS011;4356;49.068;8.658;2022-12-07T04:41:14;5.50;;;5.07;;
8636;SDS011;4356;49.068;8.658;2022-12-07T04:43:40;5.60;;;5.20;;
8636;SDS011;4356;49.068;8.658;2022-12-07T04:46:05;5.80;;;5.30;;
8636;SDS011;4356;49.068;8.658;2022-12-07T04:48:31;6.13;;;5.50;;
8636;SDS011;4356;49.068;8.658;2022-12-07T04:50:57;5.57;;;5.17;;
8636;SDS011;4356;49.068;8.658;2022-12-07T04:53:22;8.30;;;5.30;;
8636;SDS011;4356;49.068;8.658;2022-12-07T04:55:48;6.27;;;5.57;;
8636;SDS011;4356;49.068;8.658;2022-12-07T04:58:14;6.20;;;5.67;;
8636;SDS011;4356;49.068;8.658;2022-12-07T05:00:39;6.30;;;5.80;;
8636;SDS011;4356;49.068;8.658;2022-12-07T05:03:05;7.43;;;6.70;;
8636;SDS011;4356;49.068;8.658;2022-12-07T05:05:31;7.80;;;7.00;;
8636;SDS011;4356;49.068;8.658;2022-12-07T05:07:56;5.80;;;5.30;;
8636;SDS011;4356;49.068;8.658;2022-12-07T05:10:22;8.43;;;5.30;;
8636;SDS011;4356;49.068;8.658;2022-12-07T05:12:48;5.63;;;5.13;;
8636;SDS011;4356;49.068;8.658;2022-12-07T05:15:14;5.30;;;4.90;;
8636;SDS011;4356;49.068;8.658;2022-12-07T05:17:40;5.50;;;5.10;;
8636;SDS011;4356;49.068;8.658;2022-12-07T05:20:06;5.80;;;5.30;;
8636;SDS011;4356;49.068;8.658;2022-12-07T05:22:33;5.20;;;4.80;;
8636;SDS011;4356;49.068;8.658;2022-12-07T05:24:58;5.73;;;5.33;;
8636;SDS011;4356;49.068;8.658;2022-12-07T05:27:24;5.57;;;5.17;;
8636;SDS011;4356;49.068;8.658;2022-12-07T05:29:50;5.37;;;5.00;;
8636;SDS011;4356;49.068;8.658;2022-12-07T05:32:16;5.50;;;5.03;;
8636;SDS011;4356;49.068;8.658;2022-12-07T05:34:41;6.67;;;5.37;;
8636;SDS011;4356;49.068;8.658;2022-12-07T05:37:07;6.03;;;5.53;;
8636;SDS011;4356;49.068;8.658;2022-12-07T05:39:32;5.77;;;5.37;;
8636;SDS011;4356;49.068;8.658;2022-12-07T05:41:58;5.63;;;5.13;;
8636;SDS011;4356;49.068;8.658;2022-12-07T05:44:39;5.40;;;5.10;;
8636;SDS011;4356;49.068;8.658;2022-12-07T05:47:09;6.00;;;5.40;;
8636;SDS011;4356;49.068;8.658;2022-12-07T05:49:35;6.00;;;5.40;;
8636;SDS011;4356;49.068;8.658;2022-12-07T05:52:01;5.43;;;4.93;;
8636;SDS011;4356;49.068;8.658;2022-12-07T05:54:27;5.53;;;5.10;;
8636;SDS011;4356;49.068;8.658;2022-12-07T05:56:53;4.93;;;4.63;;
8636;SDS011;4356;49.068;8.658;2022-12-07T05:59:19;5.17;;;4.77;;
8636;SDS011;4356;49.068;8.658;2022-12-07T06:01:51;5.33;;;5.03;;
8636;SDS011;4356;49.068;8.658;2022-12-07T06:04:25;5.80;;;5.30;;
8636;SDS011;4356;49.068;8.658;2022-12-07T06:06:53;5.33;;;4.90;;
8636;SDS011;4356;49.068;8.658;2022-12-07T06:09:19;5.87;;;5.47;;
8636;SDS011;4356;49.068;8.658;2022-12-07T06:11:46;5.47;;;5.13;;
8636;SDS011;4356;49.068;8.658;2022-12-07T06:14:30;5.57;;;5.03;;
8636;SDS011;4356;49.068;8.658;2022-12-07T06:16:56;5.43;;;5.03;;
8636;SDS011;4356;49.068;8.658;2022-12-07T06:19:21;5.47;;;5.07;;
8636;SDS011;4356;49.068;8.658;2022-12-07T06:21:47;4.60;;;4.30;;
8636;SDS011;4356;49.068;8.658;2022-12-07T06:24:13;4.80;;;4.40;;
8636;SDS011;4356;49.068;8.658;2022-12-07T06:26:40;5.57;;;5.07;;
8636;SDS011;4356;49.068;8.658;2022-12-07T06:29:06;5.63;;;5.23;;
8636;SDS011;4356;49.068;8.658;2022-12-07T06:31:32;5.50;;;5.17;;
8636;SDS011;4356;49.068;8.658;2022-12-07T06:33:58;5.80;;;5.20;;
8636;SDS011;4356;49.068;8.658;2022-12-07T06:36:24;7.07;;;5.13;;
8636;SDS011;4356;49.068;8.658;2022-12-07T06:38:50;5.23;;;4.83;;
8636;SDS011;4356;49.068;8.658;2022-12-07T06:41:16;5.23;;;4.83;;
8636;SDS011;4356;49.068;8.658;2022-12-07T06:43:41;5.10;;;4.67;;
8636;SDS011;4356;49.068;8.658;2022-12-07T06:46:07;5.57;;;5.17;;
8636;SDS011;4356;49.068;8.658;2022-12-07T06:48:32;6.23;;;5.27;;
8636;SDS011;4356;49.068;8.658;2022-12-07T06:50:58;5.17;;;4.80;;
8636;SDS011;4356;49.068;8.658;2022-12-07T06:53:23;5.70;;;5.30;;
8636;SDS011;4356;49.068;8.658;2022-12-07T06:55:49;5.57;;;5.17;;
8636;SDS011;4356;49.068;8.658;2022-12-07T06:58:17;5.53;;;5.13;;
8636;SDS011;4356;49.068;8.658;2022-12-07T07:00:43;6.07;;;5.60;;
8636;SDS011;4356;49.068;8.658;2022-12-07T07:03:09;5.47;;;5.00;;
8636;SDS011;4356;49.068;8.658;2022-12-07T07:05:36;5.60;;;5.10;;
8636;SDS011;4356;49.068;8.658;2022-12-07T07:08:02;4.97;;;4.67;;
8636;SDS011;4356;49.068;8.658;2022-12-07T07:10:27;6.30;;;5.20;;
8636;SDS011;4356;49.068;8.658;2022-12-07T07:12:53;5.40;;;5.00;;
8636;SDS011;4356;49.068;8.658;2022-12-07T07:15:19;5.73;;;5.33;;
8636;SDS011;4356;49.068;8.658;2022-12-07T07:17:44;5.77;;;5.37;;
8636;SDS011;4356;49.068;8.658;2022-12-07T07:20:10;5.17;;;4.77;;
8636;SDS011;4356;49.068;8.658;2022-12-07T07:22:36;5.90;;;5.50;;
8636;SDS011;4356;49.068;8.658;2022-12-07T07:25:01;5.50;;;5.10;;
8636;SDS011;4356;49.068;8.658;2022-12-07T07:27:27;5.83;;;4.90;;
8636;SDS011;4356;49.068;8.658;2022-12-07T07:29:53;5.43;;;4.93;;
8636;SDS011;4356;49.068;8.658;2022-12-07T07:32:18;5.50;;;5.10;;
8636;SDS011;4356;49.068;8.658;2022-12-07T07:34:44;5.40;;;4.67;;
8636;SDS011;4356;49.068;8.658;2022-12-07T07:37:10;5.10;;;4.80;;
8636;SDS011;4356;49.068;8.658;2022-12-07T07:39:37;5.33;;;4.93;;
8636;SDS011;4356;49.068;8.658;2022-12-07T07:42:03;5.67;;;5.17;;
8636;SDS011;4356;49.068;8.658;2022-12-07T07:44:29;5.03;;;4.67;;
8636;SDS011;4356;49.068;8.658;2022-12-07T07:46:54;4.73;;;4.43;;
8636;SDS011;4356;49.068;8.658;2022-12-07T07:49:20;4.80;;;4.30;;
8636;SDS011;4356;49.068;8.658;2022-12-07T07:51:45;4.70;;;4.30;;
8636;SDS011;4356;49.068;8.658;2022-12-07T07:54:11;4.60;;;4.30;;
8636;SDS011;4356;49.068;8.658;2022-12-07T07:56:37;4.90;;;4.50;;
8636;SDS011;4356;49.068;8.658;2022-12-07T07:59:02;4.00;;;3.70;;
8636;SDS011;4356;49.068;8.658;2022-12-07T08:01:28;4.30;;;4.00;;
8636;SDS011;4356;49.068;8.658;2022-12-07T08:03:53;4.53;;;4.23;;
8636;SDS011;4356;49.068;8.658;2022-12-07T08:06:19;4.30;;;4.00;;
8636;SDS011;4356;49.068;8.658;2022-12-07T08:08:45;4.10;;;3.80;;
8636;SDS011;4356;49.068;8.658;2022-12-07T08:11:10;5.23;;;4.73;;
8636;SDS011;4356;49.068;8.658;2022-12-07T08:13:36;4.00;;;3.70;;
8636;SDS011;4356;49.068;8.658;2022-12-07T08:16:06;4.90;;;4.50;;
8636;SDS011;4356;49.068;8.658;2022-12-07T08:18:40;4.97;;;4.63;;
8636;SDS011;4356;49.068;8.658;2022-12-07T08:21:06;4.30;;;3.80;;
8636;SDS011;4356;49.068;8.658;2022-12-07T08:23:34;4.40;;;4.10;;
8636;SDS011;4356;49.068;8.658;2022-12-07T08:26:04;4.10;;;3.83;;
8636;SDS011;4356;49.068;8.658;2022-12-07T08:28:31;3.53;;;3.23;;
8636;SDS011;4356;49.068;8.658;2022-12-07T08:31:01;4.87;;;4.47;;
8636;SDS011;4356;49.068;8.658;2022-12-07T08:33:27;4.40;;;4.00;;
8636;SDS011;4356;49.068;8.658;2022-12-07T08:35:53;5.10;;;4.80;;
8636;SDS011;4356;49.068;8.658;2022-12-07T08:38:18;5.50;;;5.10;;
8636;SDS011;4356;49.068;8.658;2022-12-07T08:40:44;4.73;;;4.43;;
8636;SDS011;4356;49.068;8.658;2022-12-07T08:43:10;4.97;;;4.57;;
8636;SDS011;4356;49.068;8.658;2022-12-07T08:45:35;4.67;;;4.37;;
8636;SDS011;4356;49.068;8.658;2022-12-07T08:48:06;4.97;;;4.63;;
8636;SDS011;4356;49.068;8.658;2022-12-07T08:50:35;5.03;;;4.63;;
8636;SDS011;4356;49.068;8.658;2022-12-07T08:53:02;4.93;;;4.63;;
8636;SDS011;4356;49.068;8.658;2022-12-07T08:55:29;4.63;;;4.23;;
8636;SDS011;4356;49.068;8.658;2022-12-07T08:57:57;4.40;;;4.00;;
8636;SDS011;4356;49.068;8.658;2022-12-07T09:00:24;4.83;;;4.43;;
8636;SDS011;4356;49.068;8.658;2022-12-07T09:02:50;6.03;;;3.70;;
8636;SDS011;4356;49.068;8.658;2022-12-07T09:05:16;4.67;;;4.37;;
8636;SDS011;4356;49.068;8.658;2022-12-07T09:07:42;4.70;;;4.40;;
8636;SDS011;4356;49.068;8.658;2022-12-07T09:10:10;5.70;;;5.30;;
8636;SDS011;4356;49.068;8.658;2022-12-07T09:12:36;4.97;;;4.57;;
8636;SDS011;4356;49.068;8.658;2022-12-07T09:15:01;4.97;;;4.57;;
8636;SDS011;4356;49.068;8.658;2022-12-07T09:17:27;5.40;;;5.00;;
8636;SDS011;4356;49.068;8.658;2022-12-07T09:19:57;5.20;;;4.90;;
8636;SDS011;4356;49.068;8.658;2022-12-07T09:22:22;5.70;;;5.30;;
8636;SDS011;4356;49.068;8.658;2022-12-07T09:24:47;4.63;;;4.23;;
8636;SDS011;4356;49.068;8.658;2022-12-07T09:27:13;4.23;;;3.93;;
8636;SDS011;4356;49.068;8.658;2022-12-07T09:29:39;4.77;;;4.33;;
8636;SDS011;4356;49.068;8.658;2022-12-07T09:32:04;4.37;;;4.07;;
8636;SDS011;4356;49.068;8.658;2022-12-07T09:34:30;5.13;;;4.83;;
8636;SDS011;4356;49.068;8.658;2022-12-07T09:36:57;4.90;;;4.50;;
8636;SDS011;4356;49.068;8.658;2022-12-07T09:39:23;4.67;;;4.37;;
8636;SDS011;4356;49.068;8.658;2022-12-07T09:41:48;5.30;;;4.77;;
8636;SDS011;4356;49.068;8.658;2022-12-07T09:44:17;3.13;;;2.97;;
8636;SDS011;4356;49.068;8.658;2022-12-07T09:46:48;5.23;;;4.83;;
8636;SDS011;4356;49.068;8.658;2022-12-07T09:49:25;5.67;;;5.27;;
8636;SDS011;4356;49.068;8.658;2022-12-07T09:52:38;5.60;;;4.67;;
8636;SDS011;4356;49.068;8.658;2022-12-07T09:54:51;5.07;;;4.60;;
8636;SDS011;4356;49.068;8.658;2022-12-07T09:57:27;5.30;;;4.90;;
8636;SDS011;4356;49.068;8.658;2022-12-07T09:59:59;4.87;;;4.57;;
8636;SDS011;4356;49.068;8.658;2022-12-07T10:02:36;4.77;;;4.47;;
8636;SDS011;4356;49.068;8.658;2022-12-07T10:05:07;4.90;;;4.33;;
8636;SDS011;4356;49.068;8.658;2022-12-07T10:07:38;5.80;;;5.30;;
8636;SDS011;4356;49.068;8.658;2022-12-07T10:10:06;6.17;;;5.70;;
8636;SDS011;4356;49.068;8.658;2022-12-07T10:12:53;5.90;;;5.40;;
8636;SDS011;4356;49.068;8.658;2022-12-07T10:15:20;4.57;;;4.27;;
8636;SDS011;4356;49.068;8.658;2022-12-07T10:17:50;4.63;;;4.33;;
8636;SDS011;4356;49.068;8.658;2022-12-07T10:20:19;4.63;;;4.23;;
8636;SDS011;4356;49.068;8.658;2022-12-07T10:25:26;5.10;;;4.70;;
8636;SDS011;4356;49.068;8.658;2022-12-07T10:28:27;5.17;;;4.77;;
8636;SDS011;4356;49.068;8.658;2022-12-07T10:30:56;5.07;;;4.70;;
8636;SDS011;4356;49.068;8.658;2022-12-07T10:36:01;4.63;;;4.33;;
8636;SDS011;4356;49.068;8.658;2022-12-07T10:38:47;5.70;;;5.30;;
8636;SDS011;4356;49.068;8.658;2022-12-07T10:41:18;5.33;;;4.83;;
8636;SDS011;4356;49.068;8.658;2022-12-07T10:43:48;5.07;;;4.67;;
8636;SDS011;4356;49.068;8.658;2022-12-07T10:49:31;6.47;;;5.70;;
8636;SDS011;4356;49.068;8.658;2022-12-07T11:19:31;4.53;;;4.23;;
8636;SDS011;4356;49.068;8.658;2022-12-07T11:22:06;4.53;;;4.23;;
8636;SDS011;4356;49.068;8.658;2022-12-07T11:30:13;5.90;;;5.50;;
8636;SDS011;4356;49.068;8.658;2022-12-07T11:35:36;4.13;;;3.63;;
8636;SDS011;4356;49.068;8.658;2022-12-07T11:38:47;5.97;;;4.67;;
8636;SDS011;4356;49.068;8.658;2022-12-07T11:41:20;5.40;;;4.90;;
8636;SDS011;4356;49.068;8.658;2022-12-07T11:43:59;7.07;;;5.30;;
8636;SDS011;4356;49.068;8.658;2022-12-07T11:46:44;5.00;;;4.60;;
8636;SDS011;4356;49.068;8.658;2022-12-07T11:49:23;4.50;;;3.20;;
8636;SDS011;4356;49.068;8.658;2022-12-07T11:52:09;6.13;;;5.63;;
8636;SDS011;4356;49.068;8.658;2022-12-07T11:54:44;5.07;;;4.67;;
8636;SDS011;4356;49.068;8.658;2022-12-07T11:57:56;5.93;;;5.43;;
8636;SDS011;4356;49.068;8.658;2022-12-07T12:00:12;6.00;;;4.90;;
8636;SDS011;4356;49.068;8.658;2022-12-07T12:02:44;5.47;;;5.07;;
8636;SDS011;4356;49.068;8.658;2022-12-07T12:05:20;4.80;;;4.50;;
8636;SDS011;4356;49.068;8.658;2022-12-07T12:08:35;5.80;;;5.30;;
8636;SDS011;4356;49.068;8.658;2022-12-07T12:10:42;5.13;;;4.77;;
8636;SDS011;4356;49.068;8.658;2022-12-07T12:19:27;5.53;;;5.03;;
8636;SDS011;4356;49.068;8.658;2022-12-07T12:22:16;5.37;;;4.97;;
8636;SDS011;4356;49.068;8.658;2022-12-07T12:24:48;6.57;;;5.97;;
8636;SDS011;4356;49.068;8.658;2022-12-07T12:27:23;4.53;;;4.23;;
8636;SDS011;4356;49.068;8.658;2022-12-07T12:29:55;6.27;;;5.77;;
8636;SDS011;4356;49.068;8.658;2022-12-07T12:32:42;6.03;;;5.53;;
8636;SDS011;4356;49.068;8.658;2022-12-07T12:38:20;6.10;;;5.60;;
8636;SDS011;4356;49.068;8.658;2022-12-07T12:41:01;6.63;;;6.07;;
8636;SDS011;4356;49.068;8.658;2022-12-07T12:43:40;6.07;;;5.67;;
8636;SDS011;4356;49.068;8.658;2022-12-07T12:48:55;6.07;;;5.57;;
8636;SDS011;4356;49.068;8.658;2022-12-07T12:51:39;5.20;;;4.87;;
8636;SDS011;4356;49.068;8.658;2022-12-07T12:59:29;5.57;;;5.07;;
8636;SDS011;4356;49.068;8.658;2022-12-07T13:04:48;5.97;;;5.47;;
8636;SDS011;4356;49.068;8.658;2022-12-07T13:13:01;5.47;;;4.97;;
8636;SDS011;4356;49.068;8.658;2022-12-07T13:15:37;6.33;;;5.83;;
8636;SDS011;4356;49.068;8.658;2022-12-07T13:21:38;5.13;;;4.73;;
8636;SDS011;4356;49.068;8.658;2022-12-07T13:24:06;5.93;;;5.30;;
8636;SDS011;4356;49.068;8.658;2022-12-07T13:26:37;5.40;;;5.07;;
8636;SDS011;4356;49.068;8.658;2022-12-07T13:29:16;6.23;;;5.83;;
8636;SDS011;4356;49.068;8.658;2022-12-07T13:34:34;6.30;;;5.70;;
8636;SDS011;4356;49.068;8.658;2022-12-07T13:37:15;6.57;;;4.70;;
8636;SDS011;4356;49.068;8.658;2022-12-07T13:39:53;5.50;;;5.00;;
8636;SDS011;4356;49.068;8.658;2022-12-07T13:42:31;6.03;;;5.43;;
8636;SDS011;4356;49.068;8.658;2022-12-07T13:44:59;5.50;;;5.00;;
8636;SDS011;4356;49.068;8.658;2022-12-07T13:47:42;6.93;;;6.23;;
8636;SDS011;4356;49.068;8.658;2022-12-07T13:50:25;6.80;;;6.17;;
8636;SDS011;4356;49.068;8.658;2022-12-07T13:52:56;6.23;;;5.63;;
8636;SDS011;4356;49.068;8.658;2022-12-07T13:55:23;6.30;;;5.80;;
8636;SDS011;4356;49.068;8.658;2022-12-07T13:57:50;6.73;;;6.23;;
8636;SDS011;4356;49.068;8.658;2022-12-07T14:00:18;7.43;;;6.53;;
8636;SDS011;4356;49.068;8.658;2022-12-07T14:02:56;6.70;;;6.10;;
8636;SDS011;4356;49.068;8.658;2022-12-07T14:05:25;5.43;;;5.03;;
8636;SDS011;4356;49.068;8.658;2022-12-07T14:07:54;6.37;;;5.97;;
8636;SDS011;4356;49.068;8.658;2022-12-07T14:12:51;6.47;;;5.97;;
8636;SDS011;4356;49.068;8.658;2022-12-07T14:15:25;5.30;;;4.90;;
8636;SDS011;4356;49.068;8.658;2022-12-07T14:17:54;6.23;;;5.73;;
8636;SDS011;4356;49.068;8.658;2022-12-07T14:20:31;6.87;;;6.27;;
8636;SDS011;4356;49.068;8.658;2022-12-07T14:22:58;7.33;;;6.63;;
8636;SDS011;4356;49.068;8.658;2022-12-07T14:25:25;5.70;;;5.20;;
8636;SDS011;4356;49.068;8.658;2022-12-07T14:27:56;7.17;;;6.40;;
8636;SDS011;4356;49.068;8.658;2022-12-07T14:30:30;7.07;;;6.47;;
8636;SDS011;4356;49.068;8.658;2022-12-07T14:33:00;6.53;;;5.97;;
8636;SDS011;4356;49.068;8.658;2022-12-07T14:35:28;6.10;;;5.60;;
8636;SDS011;4356;49.068;8.658;2022-12-07T14:37:54;6.53;;;5.93;;
8636;SDS011;4356;49.068;8.658;2022-12-07T14:40:24;6.00;;;5.60;;
8636;SDS011;4356;49.068;8.658;2022-12-07T14:43:05;5.23;;;4.50;;
8636;SDS011;4356;49.068;8.658;2022-12-07T14:45:34;6.40;;;5.90;;
8636;SDS011;4356;49.068;8.658;2022-12-07T14:47:59;6.30;;;5.70;;
8636;SDS011;4356;49.068;8.658;2022-12-07T14:50:25;6.47;;;5.93;;
8636;SDS011;4356;49.068;8.658;2022-12-07T14:52:52;6.10;;;5.60;;
8636;SDS011;4356;49.068;8.658;2022-12-07T14:55:24;6.13;;;5.60;;
8636;SDS011;4356;49.068;8.658;2022-12-07T14:57:52;5.67;;;5.23;;
8636;SDS011;4356;49.068;8.658;2022-12-07T15:00:18;6.07;;;5.57;;
8636;SDS011;4356;49.068;8.658;2022-12-07T15:02:47;6.67;;;6.03;;
8636;SDS011;4356;49.068;8.658;2022-12-07T15:05:15;6.50;;;6.00;;
8636;SDS011;4356;49.068;8.658;2022-12-07T15:07:41;6.37;;;5.80;;
8636;SDS011;4356;49.068;8.658;2022-12-07T15:10:08;6.07;;;5.57;;
8636;SDS011;4356;49.068;8.658;2022-12-07T15:12:43;6.53;;;5.90;;
8636;SDS011;4356;49.068;8.658;2022-12-07T15:15:09;6.13;;;5.63;;
8636;SDS011;4356;49.068;8.658;2022-12-07T15:17:34;6.63;;;6.03;;
8636;SDS011;4356;49.068;8.658;2022-12-07T15:20:00;6.13;;;5.70;;
8636;SDS011;4356;49.068;8.658;2022-12-07T15:22:26;5.60;;;5.20;;
8636;SDS011;4356;49.068;8.658;2022-12-07T15:24:52;5.90;;;5.50;;
8636;SDS011;4356;49.068;8.658;2022-12-07T15:27:17;7.40;;;6.70;;
8636;SDS011;4356;49.068;8.658;2022-12-07T15:29:43;7.07;;;5.90;;
8636;SDS011;4356;49.068;8.658;2022-12-07T15:32:08;5.93;;;5.50;;
8636;SDS011;4356;49.068;8.658;2022-12-07T15:34:34;6.07;;;5.47;;
8636;SDS011;4356;49.068;8.658;2022-12-07T15:37:01;5.50;;;5.10;;
8636;SDS011;4356;49.068;8.658;2022-12-07T15:39:27;5.80;;;5.30;;
8636;SDS011;4356;49.068;8.658;2022-12-07T15:41:52;5.40;;;5.00;;
8636;SDS011;4356;49.068;8.658;2022-12-07T15:44:18;5.70;;;4.97;;
8636;SDS011;4356;49.068;8.658;2022-12-07T15:47:03;5.17;;;4.80;;
8636;SDS011;4356;49.068;8.658;2022-12-07T15:49:29;5.30;;;4.90;;
8636;SDS011;4356;49.068;8.658;2022-12-07T15:51:54;5.37;;;5.03;;
8636;SDS011;4356;49.068;8.658;2022-12-07T15:56:47;5.10;;;4.70;;
8636;SDS011;4356;49.068;8.658;2022-12-07T15:59:13;5.33;;;4.93;;
8636;SDS011;4356;49.068;8.658;2022-12-07T16:01:39;6.17;;;5.77;;
8636;SDS011;4356;49.068;8.658;2022-12-07T16:04:05;5.30;;;4.90;;
8636;SDS011;4356;49.068;8.658;2022-12-07T16:06:31;5.43;;;5.03;;
8636;SDS011;4356;49.068;8.658;2022-12-07T16:08:56;4.83;;;4.43;;
8636;SDS011;4356;49.068;8.658;2022-12-07T16:11:22;4.80;;;4.40;;
8636;SDS011;4356;49.068;8.658;2022-12-07T16:13:48;5.93;;;5.53;;
8636;SDS011;4356;49.068;8.658;2022-12-07T16:16:14;5.47;;;4.90;;
8636;SDS011;4356;49.068;8.658;2022-12-07T16:18:42;5.30;;;5.00;;
8636;SDS011;4356;49.068;8.658;2022-12-07T16:21:08;6.07;;;5.60;;
8636;SDS011;4356;49.068;8.658;2022-12-07T16:23:34;6.70;;;6.20;;
8636;SDS011;4356;49.068;8.658;2022-12-07T16:26:14;5.87;;;5.37;;
8636;SDS011;4356;49.068;8.658;2022-12-07T16:28:41;6.90;;;5.70;;
8636;SDS011;4356;49.068;8.658;2022-12-07T16:31:08;5.67;;;5.17;;
8636;SDS011;4356;49.068;8.658;2022-12-07T16:33:36;5.43;;;5.03;;
8636;SDS011;4356;49.068;8.658;2022-12-07T16:36:03;5.53;;;5.10;;
8636;SDS011;4356;49.068;8.658;2022-12-07T16:38:29;5.40;;;5.10;;
8636;SDS011;4356;49.068;8.658;2022-12-07T16:40:55;6.30;;;5.70;;
8636;SDS011;4356;49.068;8.658;2022-12-07T16:43:21;5.53;;;5.03;;
8636;SDS011;4356;49.068;8.658;2022-12-07T16:45:47;6.33;;;5.67;;
8636;SDS011;4356;49.068;8.658;2022-12-07T16:48:13;5.70;;;5.30;;
8636;SDS011;4356;49.068;8.658;2022-12-07T16:50:40;5.87;;;5.40;;
8636;SDS011;4356;49.068;8.658;2022-12-07T16:53:07;5.90;;;5.40;;
8636;SDS011;4356;49.068;8.658;2022-12-07T16:55:40;6.13;;;5.63;;
8636;SDS011;4356;49.068;8.658;2022-12-07T16:58:07;6.07;;;5.57;;
8636;SDS011;4356;49.068;8.658;2022-12-07T17:00:33;6.10;;;5.50;;
8636;SDS011;4356;49.068;8.658;2022-12-07T17:02:59;5.87;;;5.43;;
8636;SDS011;4356;49.068;8.658;2022-12-07T17:05:25;5.60;;;5.20;;
8636;SDS011;4356;49.068;8.658;2022-12-07T17:07:53;5.80;;;5.40;;
8636;SDS011;4356;49.068;8.658;2022-12-07T17:10:19;5.77;;;5.27;;
8636;SDS011;4356;49.068;8.658;2022-12-07T17:12:44;5.77;;;5.37;;
8636;SDS011;4356;49.068;8.658;2022-12-07T17:15:10;5.70;;;5.20;;
8636;SDS011;4356;49.068;8.658;2022-12-07T17:17:42;5.33;;;4.83;;